Time;durP1;ratioP1;P1;durP2;ratioP2;P2;SDS_P1;SDS_P2;PMS_P1;PMS_P2;Temp;Humidity;BMP_temperature;BMP_pressure;BME280_temperature;BME280_humidity;BME280_pressure;Samples;Min_cycle;Max_cycle;Signal;HPM_P1;HPM_P2
2024/02/21 00:00:53;;;;;;;17.10;15.30;;;5.50;99.90;;;;;;4867044;29;20266;-77
2024/02/21 00:03:21;;;;;;;17.63;15.83;;;5.50;99.90;;;;;;4867109;29;20260;-77
2024/02/21 00:05:47;;;;;;;17.27;15.47;;;5.40;99.90;;;;;;4864327;29;20293;-77
2024/02/21 00:08:14;;;;;;;17.57;15.73;;;5.50;99.90;;;;;;4866593;29;20203;-76
2024/02/21 00:10:41;;;;;;;18.33;15.60;;;5.50;99.90;;;;;;4866360;29;20289;-77
2024/02/21 00:13:08;;;;;;;16.03;14.53;;;5.50;99.90;;;;;;4866299;29;20209;-77
2024/02/21 00:15:35;;;;;;;16.37;14.93;;;5.50;99.90;;;;;;4869975;29;20209;-77
2024/02/21 00:18:01;;;;;;;17.20;15.60;;;5.40;99.90;;;;;;4866714;29;20225;-77
2024/02/21 00:20:30;;;;;;;17.53;15.77;;;5.40;99.90;;;;;;4869102;29;20232;-77
2024/02/21 00:22:57;;;;;;;17.10;15.60;;;5.40;99.90;;;;;;4866360;29;20703;-76
2024/02/21 00:25:24;;;;;;;16.67;15.30;;;5.30;99.90;;;;;;4865861;29;20259;-77
2024/02/21 00:27:50;;;;;;;19.03;16.50;;;5.30;99.90;;;;;;4865745;29;20264;-76
2024/02/21 00:30:17;;;;;;;17.10;15.33;;;5.30;99.90;;;;;;4860785;29;20262;-77
2024/02/21 00:32:44;;;;;;;17.20;15.80;;;5.30;99.90;;;;;;4868588;29;20686;-77
2024/02/21 00:35:12;;;;;;;17.70;15.93;;;5.30;99.90;;;;;;4865663;29;20222;-77
2024/02/21 00:37:40;;;;;;;17.30;15.70;;;5.30;99.90;;;;;;4870326;29;20276;-76
2024/02/21 00:40:08;;;;;;;18.47;16.67;;;5.30;99.90;;;;;;4865988;29;20265;-76
2024/02/21 00:42:34;;;;;;;19.07;15.70;;;5.40;99.90;;;;;;4864915;29;20221;-76
2024/02/21 00:45:01;;;;;;;17.83;16.17;;;5.40;99.90;;;;;;4861263;29;20201;-77
2024/02/21 00:47:28;;;;;;;18.10;16.20;;;5.40;99.90;;;;;;4863192;29;20273;-76
2024/02/21 00:49:55;;;;;;;16.50;15.07;;;5.40;99.90;;;;;;4865324;29;20243;-76
2024/02/21 00:52:21;;;;;;;17.57;15.97;;;5.50;99.90;;;;;;4879966;29;20295;-77
2024/02/21 00:54:50;;;;;;;16.40;15.00;;;5.40;99.90;;;;;;4865113;29;20636;-77
2024/02/21 00:57:16;;;;;;;17.13;15.43;;;5.40;99.90;;;;;;4865596;29;20253;-77
2024/02/21 00:59:43;;;;;;;18.77;16.33;;;5.40;99.90;;;;;;4864948;29;20260;-77
2024/02/21 01:02:10;;;;;;;18.20;16.27;;;5.40;99.90;;;;;;4865379;29;20219;-76
2024/02/21 01:04:37;;;;;;;16.77;15.43;;;5.40;99.90;;;;;;4864478;29;20213;-76
2024/02/21 01:07:04;;;;;;;19.00;16.10;;;5.40;99.90;;;;;;4865626;29;20207;-76
2024/02/21 01:09:31;;;;;;;17.07;15.43;;;5.40;99.90;;;;;;4864931;29;20199;-77
2024/02/21 01:11:59;;;;;;;16.87;15.27;;;5.40;99.90;;;;;;4865511;29;20229;-77
2024/02/21 01:14:25;;;;;;;17.27;15.73;;;5.40;99.90;;;;;;4865562;29;20219;-78
2024/02/21 01:16:52;;;;;;;16.07;14.77;;;5.40;99.90;;;;;;4865245;29;20235;-77
2024/02/21 01:19:19;;;;;;;16.23;14.93;;;5.40;99.90;;;;;;4865268;29;20231;-77
2024/02/21 01:21:46;;;;;;;17.07;15.33;;;5.40;99.90;;;;;;4863222;29;20232;-77
2024/02/21 01:24:14;;;;;;;16.23;14.73;;;5.40;99.90;;;;;;4865109;29;20743;-77
2024/02/21 01:26:41;;;;;;;17.07;15.30;;;5.40;99.90;;;;;;4864710;29;20236;-76
2024/02/21 01:29:09;;;;;;;16.90;15.37;;;5.40;99.90;;;;;;4865051;29;20260;-76
2024/02/21 01:31:36;;;;;;;16.40;15.00;;;5.40;99.90;;;;;;4864507;29;20276;-77
2024/02/21 01:34:02;;;;;;;16.77;15.23;;;5.40;99.90;;;;;;4865643;29;20207;-77
2024/02/21 01:36:29;;;;;;;17.03;15.23;;;5.50;99.90;;;;;;4860677;29;20203;-77
2024/02/21 01:38:56;;;;;;;15.67;14.23;;;5.40;99.90;;;;;;4863873;29;20224;-77
2024/02/21 01:41:23;;;;;;;16.13;14.73;;;5.40;99.90;;;;;;4865002;29;20224;-77
2024/02/21 01:43:50;;;;;;;15.90;14.37;;;5.40;99.90;;;;;;4863994;29;20235;-77
2024/02/21 01:46:18;;;;;;;16.00;14.60;;;5.40;99.90;;;;;;4860946;29;20203;-77
2024/02/21 01:48:46;;;;;;;16.60;15.00;;;5.40;99.90;;;;;;4862312;29;20198;-77
2024/02/21 01:51:13;;;;;;;16.07;14.67;;;5.40;99.90;;;;;;4864426;29;20218;-77
2024/02/21 01:53:44;;;;;;;15.97;14.47;;;5.50;99.90;;;;;;4865017;29;20200;-76
2024/02/21 01:56:11;;;;;;;15.10;13.90;;;5.50;99.90;;;;;;4864882;29;20203;-77
2024/02/21 01:58:40;;;;;;;15.30;14.00;;;5.50;99.90;;;;;;4859926;29;20314;-77
2024/02/21 02:01:07;;;;;;;17.27;15.50;;;5.50;99.90;;;;;;4863090;29;20232;-77
2024/02/21 02:03:35;;;;;;;16.30;14.80;;;5.60;99.90;;;;;;4860032;29;20266;-76
2024/02/21 02:06:03;;;;;;;16.63;14.93;;;5.60;99.90;;;;;;4872657;29;20203;-77
2024/02/21 02:08:30;;;;;;;16.33;14.93;;;5.60;99.90;;;;;;4869928;29;20213;-76
2024/02/21 02:10:57;;;;;;;16.33;15.03;;;5.70;99.90;;;;;;4864450;29;20251;-76
2024/02/21 02:13:23;;;;;;;16.90;15.37;;;5.70;99.90;;;;;;4864143;29;20742;-77
2024/02/21 02:15:51;;;;;;;14.60;13.40;;;5.70;99.90;;;;;;4864678;29;20206;-77
2024/02/21 02:18:19;;;;;;;16.20;14.73;;;5.70;99.90;;;;;;4864024;29;20256;-76
2024/02/21 02:20:48;;;;;;;14.77;13.47;;;5.80;99.90;;;;;;4862746;29;20232;-77
2024/02/21 02:23:21;;;;;;;15.40;14.20;;;5.70;99.90;;;;;;4863417;29;20209;-77
2024/02/21 02:25:51;;;;;;;14.87;13.77;;;5.80;99.90;;;;;;4875915;29;20254;-77
2024/02/21 02:28:17;;;;;;;14.80;13.63;;;5.80;99.90;;;;;;4863648;29;20198;-76
2024/02/21 02:30:44;;;;;;;14.87;13.57;;;5.90;99.90;;;;;;4864417;29;20225;-77
2024/02/21 02:33:11;;;;;;;13.43;12.43;;;5.90;99.90;;;;;;4864026;29;20230;-76
2024/02/21 02:35:38;;;;;;;14.23;13.10;;;5.90;99.90;;;;;;4865695;29;20205;-77
2024/02/21 02:38:05;;;;;;;13.73;12.73;;;5.90;99.90;;;;;;4869597;29;20250;-77
2024/02/21 02:40:35;;;;;;;13.03;12.03;;;5.90;99.90;;;;;;4864051;29;20222;-77
2024/02/21 02:43:01;;;;;;;13.50;12.50;;;5.90;99.90;;;;;;4867231;29;20208;-77
2024/02/21 02:45:28;;;;;;;12.97;11.97;;;5.90;99.90;;;;;;4870161;29;20197;-77
2024/02/21 02:47:56;;;;;;;13.40;12.40;;;5.90;99.90;;;;;;4870362;29;20704;-77
2024/02/21 02:50:23;;;;;;;12.93;11.97;;;5.90;99.90;;;;;;4870288;29;20212;-77
2024/02/21 02:52:50;;;;;;;12.77;11.70;;;6.00;99.90;;;;;;4869533;29;20643;-76
2024/02/21 02:55:17;;;;;;;12.13;11.40;;;6.00;99.90;;;;;;4870271;29;20798;-77
2024/02/21 02:57:46;;;;;;;13.10;12.10;;;6.10;99.90;;;;;;4868607;29;20205;-77
2024/02/21 03:00:14;;;;;;;13.60;12.40;;;6.10;99.90;;;;;;4876770;29;20884;-77
2024/02/21 03:02:43;;;;;;;13.23;12.20;;;6.10;99.90;;;;;;4868999;29;20765;-77
2024/02/21 03:05:15;;;;;;;12.43;11.53;;;6.10;99.90;;;;;;4870818;29;20202;-77
2024/02/21 03:07:42;;;;;;;12.77;11.70;;;6.20;99.90;;;;;;4870647;29;20288;-76
2024/02/21 03:10:10;;;;;;;12.83;11.90;;;6.20;99.90;;;;;;4872740;29;20209;-76
2024/02/21 03:12:36;;;;;;;13.70;12.57;;;6.20;99.90;;;;;;4870390;29;20245;-77
2024/02/21 03:15:06;;;;;;;13.73;12.40;;;6.30;99.90;;;;;;4869638;29;20206;-77
2024/02/21 03:17:34;;;;;;;13.43;12.43;;;6.20;99.90;;;;;;4870374;29;20206;-77
2024/02/21 03:20:01;;;;;;;14.83;13.60;;;6.20;99.90;;;;;;4870279;29;20704;-77
2024/02/21 03:22:27;;;;;;;15.13;13.73;;;6.20;99.90;;;;;;4866319;29;20295;-77
2024/02/21 03:24:54;;;;;;;14.97;13.57;;;6.10;99.90;;;;;;4866983;29;20207;-77
2024/02/21 03:27:21;;;;;;;14.97;13.60;;;6.10;99.90;;;;;;4865623;29;20218;-77
2024/02/21 03:29:48;;;;;;;14.50;13.20;;;6.10;99.90;;;;;;4866455;29;20205;-77
2024/02/21 03:32:16;;;;;;;14.77;13.30;;;6.10;99.90;;;;;;4870676;29;20690;-77
2024/02/21 03:34:44;;;;;;;14.03;12.93;;;6.10;99.90;;;;;;4869923;29;20238;-76
2024/02/21 03:37:13;;;;;;;13.60;12.37;;;6.20;99.90;;;;;;4868461;29;20214;-76
2024/02/21 03:39:40;;;;;;;14.50;13.10;;;6.20;99.90;;;;;;4870006;29;20635;-77
2024/02/21 03:42:07;;;;;;;13.63;12.43;;;6.20;99.90;;;;;;4867163;29;20279;-76
2024/02/21 03:44:34;;;;;;;13.40;12.40;;;6.20;99.90;;;;;;4870512;29;20568;-78
2024/02/21 03:47:01;;;;;;;13.53;12.30;;;6.30;99.90;;;;;;4868928;29;20231;-76
2024/02/21 03:49:29;;;;;;;12.70;11.80;;;6.30;99.90;;;;;;4877482;29;20745;-77
2024/02/21 03:51:56;;;;;;;14.23;13.03;;;6.30;99.90;;;;;;4866005;29;20232;-78
2024/02/21 03:54:23;;;;;;;14.73;13.57;;;6.20;99.90;;;;;;4865444;29;20233;-77
2024/02/21 03:56:50;;;;;;;13.77;12.77;;;6.10;99.90;;;;;;4857011;29;20210;-76
2024/02/21 03:59:16;;;;;;;14.40;13.40;;;6.10;99.90;;;;;;4872562;29;20277;-76
2024/02/21 04:01:43;;;;;;;13.97;12.77;;;6.00;99.90;;;;;;4871974;29;20260;-77
2024/02/21 04:04:11;;;;;;;13.93;12.90;;;6.00;99.90;;;;;;4862223;29;20638;-76
2024/02/21 04:06:47;;;;;;;14.20;13.17;;;6.00;99.90;;;;;;4863658;29;20287;-76
2024/02/21 04:09:14;;;;;;;14.67;13.17;;;5.90;99.90;;;;;;4862055;29;20697;-77
2024/02/21 04:11:41;;;;;;;14.33;13.00;;;5.80;99.90;;;;;;4863691;29;20266;-76
2024/02/21 04:14:07;;;;;;;14.00;12.83;;;5.80;99.90;;;;;;4851726;29;20637;-76
2024/02/21 04:16:35;;;;;;;14.27;13.07;;;5.70;99.90;;;;;;4863376;29;20209;-76
2024/02/21 04:19:01;;;;;;;14.17;12.90;;;5.70;99.90;;;;;;4863415;29;20251;-77
2024/02/21 04:21:28;;;;;;;14.80;13.10;;;5.70;99.90;;;;;;4862759;29;20257;-77
2024/02/21 04:23:56;;;;;;;14.30;13.00;;;5.60;99.90;;;;;;4866883;29;20212;-76
2024/02/21 04:26:23;;;;;;;13.53;12.60;;;5.60;99.90;;;;;;4861781;29;20212;-76
2024/02/21 04:28:50;;;;;;;14.63;13.43;;;5.60;99.90;;;;;;4869031;29;20240;-77
2024/02/21 04:31:17;;;;;;;15.07;13.10;;;5.60;99.90;;;;;;4864508;29;20231;-76
2024/02/21 04:33:43;;;;;;;13.90;12.50;;;5.60;99.90;;;;;;4863664;29;20215;-77
2024/02/21 04:36:10;;;;;;;14.60;13.30;;;5.60;99.90;;;;;;4865007;29;20232;-77
2024/02/21 04:38:36;;;;;;;14.10;12.83;;;5.60;99.90;;;;;;4863493;29;20284;-77
2024/02/21 04:41:04;;;;;;;14.40;13.00;;;5.50;99.90;;;;;;4868684;29;20222;-77
2024/02/21 04:43:31;;;;;;;15.20;13.70;;;5.50;99.90;;;;;;4860168;29;20208;-76
2024/02/21 04:45:58;;;;;;;13.97;12.87;;;5.50;99.90;;;;;;4863721;29;20205;-77
2024/02/21 04:48:24;;;;;;;14.53;13.20;;;5.40;99.90;;;;;;4864585;29;20232;-76
2024/02/21 04:50:51;;;;;;;14.30;13.20;;;5.40;99.90;;;;;;4864381;29;20601;-77
2024/02/21 04:53:18;;;;;;;14.10;13.10;;;5.30;99.90;;;;;;4862929;29;20219;-77
2024/02/21 04:55:45;;;;;;;14.40;13.17;;;5.30;99.90;;;;;;4858718;29;20496;-77
2024/02/21 04:58:13;;;;;;;14.43;13.23;;;5.30;99.90;;;;;;4859543;29;20205;-76
2024/02/21 05:00:40;;;;;;;14.47;13.07;;;5.30;99.90;;;;;;4856505;29;20267;-76
2024/02/21 05:03:07;;;;;;;15.17;13.63;;;5.30;99.90;;;;;;4863859;29;20283;-76
2024/02/21 05:05:33;;;;;;;14.30;13.10;;;5.30;99.90;;;;;;4859578;29;20260;-76
2024/02/21 05:08:00;;;;;;;15.03;13.73;;;5.30;99.90;;;;;;4859791;29;20295;-76
2024/02/21 05:10:27;;;;;;;15.30;14.10;;;5.30;99.90;;;;;;4859405;29;20219;-76
2024/02/21 05:12:54;;;;;;;15.00;13.73;;;5.20;99.90;;;;;;4859920;29;20199;-76
2024/02/21 05:15:22;;;;;;;14.90;13.83;;;5.20;99.90;;;;;;4859509;29;20627;-76
2024/02/21 05:17:48;;;;;;;15.57;14.33;;;5.20;99.90;;;;;;4859270;29;20214;-75
2024/02/21 05:20:15;;;;;;;14.30;13.10;;;5.10;99.90;;;;;;4872887;29;20315;-75
2024/02/21 05:22:43;;;;;;;14.47;13.40;;;5.10;99.90;;;;;;4859912;29;20667;-75
2024/02/21 05:25:10;;;;;;;14.60;13.50;;;5.10;99.90;;;;;;4865080;29;20242;-75
2024/02/21 05:27:38;;;;;;;13.83;12.83;;;5.00;99.90;;;;;;4858434;29;20667;-76
2024/02/21 05:30:06;;;;;;;14.13;13.13;;;4.90;99.90;;;;;;4859498;29;20234;-76
2024/02/21 05:32:35;;;;;;;14.57;13.50;;;4.90;99.90;;;;;;4858538;29;20266;-76
2024/02/21 05:35:01;;;;;;;15.47;14.17;;;4.80;99.90;;;;;;4859581;29;20247;-75
2024/02/21 05:37:28;;;;;;;15.33;14.17;;;4.80;99.90;;;;;;4859681;29;20304;-76
2024/02/21 05:39:55;;;;;;;15.10;13.90;;;4.80;99.90;;;;;;4859460;29;20274;-76
2024/02/21 05:42:22;;;;;;;14.57;13.57;;;4.70;99.90;;;;;;4864280;29;20235;-76
2024/02/21 05:44:48;;;;;;;16.67;14.93;;;4.70;99.90;;;;;;4858283;29;20210;-76
2024/02/21 05:47:15;;;;;;;14.47;13.40;;;4.60;99.90;;;;;;4859509;29;20730;-76
2024/02/21 05:49:43;;;;;;;14.77;13.67;;;4.60;99.90;;;;;;4859345;29;20282;-76
2024/02/21 05:52:10;;;;;;;15.37;14.07;;;4.50;99.90;;;;;;4859321;29;20716;-76
2024/02/21 05:54:40;;;;;;;15.93;14.53;;;4.50;99.90;;;;;;4855146;29;20731;-76
2024/02/21 05:57:07;;;;;;;16.33;14.93;;;4.40;99.90;;;;;;4868179;29;20739;-76
2024/02/21 05:59:36;;;;;;;15.37;14.07;;;4.40;99.90;;;;;;4855662;29;20721;-76
2024/02/21 06:02:04;;;;;;;16.20;15.10;;;4.40;99.90;;;;;;4868168;29;20317;-76
2024/02/21 06:04:31;;;;;;;16.43;14.90;;;4.40;99.90;;;;;;4849605;29;20231;-76
2024/02/21 06:06:59;;;;;;;16.73;15.23;;;4.40;99.90;;;;;;4861944;29;20245;-75
2024/02/21 06:09:25;;;;;;;16.43;15.20;;;4.40;99.90;;;;;;4861458;29;20702;-76
2024/02/21 06:11:52;;;;;;;17.47;15.70;;;4.30;99.90;;;;;;4855055;29;20293;-77
2024/02/21 06:14:19;;;;;;;17.87;16.47;;;4.30;99.90;;;;;;4869611;29;20765;-76
2024/02/21 06:16:46;;;;;;;17.07;15.53;;;4.40;99.90;;;;;;4854325;29;20758;-76
2024/02/21 06:19:12;;;;;;;17.07;15.60;;;4.30;99.90;;;;;;4868228;29;20203;-76
2024/02/21 06:21:39;;;;;;;16.30;15.10;;;4.40;99.90;;;;;;4857825;29;20268;-76
2024/02/21 06:24:08;;;;;;;16.67;15.07;;;4.40;99.90;;;;;;4859026;29;20198;-76
2024/02/21 06:26:34;;;;;;;16.40;15.03;;;4.40;99.90;;;;;;4858856;29;20598;-76
2024/02/21 06:29:01;;;;;;;15.37;14.17;;;4.40;99.90;;;;;;4856169;29;20211;-76
2024/02/21 06:31:28;;;;;;;15.73;14.43;;;4.50;99.90;;;;;;4862128;29;20236;-76
2024/02/21 06:33:55;;;;;;;15.73;14.47;;;4.50;99.90;;;;;;4859000;29;20258;-76
2024/02/21 06:36:22;;;;;;;18.03;15.97;;;4.60;99.90;;;;;;4858843;29;20215;-76
2024/02/21 06:38:48;;;;;;;16.67;15.10;;;4.60;99.90;;;;;;4858921;29;20207;-76
2024/02/21 06:41:18;;;;;;;19.03;15.57;;;4.60;99.90;;;;;;4859819;29;20234;-76
2024/02/21 06:43:45;;;;;;;17.00;14.97;;;4.50;99.90;;;;;;4859492;29;20206;-76
2024/02/21 06:46:12;;;;;;;15.83;14.53;;;4.50;99.90;;;;;;4858843;29;20207;-76
2024/02/21 06:48:39;;;;;;;16.80;15.20;;;4.60;99.90;;;;;;4858829;29;20207;-76
2024/02/21 06:51:06;;;;;;;16.10;14.63;;;4.60;99.90;;;;;;4859155;29;20604;-76
2024/02/21 06:53:33;;;;;;;16.93;15.40;;;4.70;99.90;;;;;;4863337;29;20232;-76
2024/02/21 06:55:59;;;;;;;16.10;14.70;;;4.70;99.90;;;;;;4857567;29;20723;-76
2024/02/21 06:58:27;;;;;;;15.20;13.90;;;4.80;99.90;;;;;;4858374;29;20210;-76
2024/02/21 07:00:54;;;;;;;14.60;13.60;;;5.00;99.90;;;;;;4858716;29;20737;-76
2024/02/21 07:03:21;;;;;;;16.33;14.93;;;5.10;99.90;;;;;;4861829;29;20298;-76
2024/02/21 07:05:48;;;;;;;16.73;15.40;;;5.30;99.90;;;;;;4859081;29;20587;-76
2024/02/21 07:08:14;;;;;;;16.27;14.97;;;5.50;99.90;;;;;;4858659;29;20234;-76
2024/02/21 07:10:41;;;;;;;16.53;15.10;;;5.60;99.90;;;;;;4857096;29;20775;-76
2024/02/21 07:13:08;;;;;;;14.37;13.43;;;5.70;99.90;;;;;;4858821;29;20263;-76
2024/02/21 07:15:37;;;;;;;14.47;13.37;;;5.80;99.90;;;;;;4855984;29;20212;-76
2024/02/21 07:18:05;;;;;;;14.80;13.70;;;5.90;99.90;;;;;;4862524;29;20211;-76
2024/02/21 07:20:33;;;;;;;14.83;13.73;;;6.00;99.90;;;;;;4858309;29;20660;-76
2024/02/21 07:23:00;;;;;;;15.13;13.83;;;6.10;99.90;;;;;;4862489;29;20680;-76
2024/02/21 07:25:27;;;;;;;14.70;13.60;;;6.10;99.90;;;;;;4858659;29;20236;-76
2024/02/21 07:27:53;;;;;;;14.33;13.03;;;6.20;99.90;;;;;;4857338;29;20201;-76
2024/02/21 07:30:20;;;;;;;14.87;13.67;;;6.30;99.90;;;;;;4874677;29;20205;-76
2024/02/21 07:32:50;;;;;;;14.57;13.53;;;6.30;99.90;;;;;;4862262;29;20243;-76
2024/02/21 07:35:17;;;;;;;14.40;13.30;;;6.40;99.90;;;;;;4862044;29;20206;-76
2024/02/21 07:37:43;;;;;;;15.53;14.37;;;6.50;99.90;;;;;;4862229;29;20209;-76
2024/02/21 07:40:13;;;;;;;13.50;12.57;;;6.50;99.90;;;;;;4861849;29;20218;-76
2024/02/21 07:42:40;;;;;;;14.37;13.13;;;6.60;99.90;;;;;;4857489;29;20204;-76
2024/02/21 07:45:08;;;;;;;14.60;13.40;;;6.80;99.90;;;;;;4862303;29;20202;-76
2024/02/21 07:47:34;;;;;;;14.60;13.40;;;7.10;99.90;;;;;;4862074;29;20262;-76
2024/02/21 07:50:03;;;;;;;14.70;13.60;;;7.30;99.90;;;;;;4860791;29;20210;-76
2024/02/21 07:52:29;;;;;;;15.30;13.93;;;7.70;99.90;;;;;;4876435;29;20226;-76
2024/02/21 07:54:56;;;;;;;15.03;13.63;;;7.90;99.90;;;;;;4861223;29;20746;-77
2024/02/21 07:57:23;;;;;;;9.03;8.23;;;8.00;99.90;;;;;;4862182;29;20202;-76
2024/02/21 07:59:50;;;;;;;11.43;10.63;;;8.00;99.90;;;;;;4860020;29;20234;-76
2024/02/21 08:02:17;;;;;;;9.80;8.90;;;8.20;99.90;;;;;;4868946;29;20250;-76
2024/02/21 08:04:44;;;;;;;9.00;8.20;;;8.30;99.90;;;;;;4862988;29;20206;-76
2024/02/21 08:07:12;;;;;;;9.30;8.10;;;8.50;99.90;;;;;;4862552;29;20198;-75
2024/02/21 08:09:40;;;;;;;7.63;6.93;;;8.60;99.90;;;;;;4867401;29;20240;-77
2024/02/21 08:12:08;;;;;;;6.77;5.23;;;8.70;99.90;;;;;;4861123;29;20234;-77
2024/02/21 08:14:34;;;;;;;6.67;5.20;;;8.90;99.90;;;;;;4867974;29;20210;-77
2024/02/21 08:17:01;;;;;;;7.67;4.67;;;8.90;99.90;;;;;;4865483;29;20260;-77
2024/02/21 08:19:28;;;;;;;8.00;4.60;;;9.00;99.90;;;;;;4864493;29;20259;-77
2024/02/21 08:21:55;;;;;;;10.90;5.60;;;9.20;99.90;;;;;;4860592;29;20243;-78
2024/02/21 08:24:23;;;;;;;9.63;5.20;;;9.30;99.90;;;;;;4862956;29;20245;-77
2024/02/21 08:26:50;;;;;;;9.87;4.80;;;9.40;99.90;;;;;;4859640;29;20302;-78
2024/02/21 08:29:17;;;;;;;12.60;8.47;;;9.50;99.90;;;;;;4859903;29;20201;-76
2024/02/21 08:31:43;;;;;;;11.13;8.17;;;9.70;99.90;;;;;;4863775;29;20223;-76
2024/02/21 08:34:10;;;;;;;8.40;7.60;;;9.80;99.90;;;;;;4863627;29;20203;-77
2024/02/21 08:36:37;;;;;;;7.57;6.83;;;9.80;99.90;;;;;;4861494;29;20271;-77
2024/02/21 08:39:05;;;;;;;8.70;6.50;;;10.00;99.90;;;;;;4863456;29;20624;-77
2024/02/21 08:41:33;;;;;;;8.90;6.13;;;10.00;99.90;;;;;;4861154;29;20261;-77
2024/02/21 08:44:01;;;;;;;9.77;8.57;;;10.10;99.90;;;;;;4863288;29;20238;-77
2024/02/21 08:46:28;;;;;;;5.43;4.60;;;10.20;99.90;;;;;;4863259;29;20212;-77
2024/02/21 08:48:55;;;;;;;7.33;5.43;;;10.20;99.90;;;;;;4861467;29;20207;-77
2024/02/21 08:51:22;;;;;;;6.37;5.60;;;10.10;99.90;;;;;;4862870;29;20576;-76
2024/02/21 08:53:49;;;;;;;7.60;5.27;;;10.10;99.90;;;;;;4861676;29;20267;-76
2024/02/21 08:56:16;;;;;;;6.33;5.10;;;10.10;99.90;;;;;;4862472;29;20690;-76
2024/02/21 08:58:44;;;;;;;9.07;8.17;;;10.20;99.90;;;;;;4863044;29;20686;-77
2024/02/21 09:01:11;;;;;;;10.17;9.17;;;10.20;99.90;;;;;;4863226;29;20915;-75
2024/02/21 09:03:38;;;;;;;9.87;9.07;;;10.20;99.90;;;;;;4863032;29;20745;-77
2024/02/21 09:06:06;;;;;;;8.63;7.83;;;10.20;99.90;;;;;;4862737;29;20251;-77
2024/02/21 09:08:33;;;;;;;10.50;8.07;;;10.20;99.90;;;;;;4860100;29;20205;-77
2024/02/21 09:11:01;;;;;;;8.70;7.87;;;10.10;99.90;;;;;;4857984;29;20307;-78
2024/02/21 09:13:27;;;;;;;9.53;7.27;;;10.10;99.90;;;;;;4864739;29;20205;-77
2024/02/21 09:15:56;;;;;;;7.83;6.90;;;10.20;99.90;;;;;;4862226;29;20264;-79
2024/02/21 09:18:22;;;;;;;9.87;7.63;;;10.20;99.90;;;;;;4860568;29;20223;-79
2024/02/21 09:20:49;;;;;;;11.97;8.00;;;10.20;99.90;;;;;;4857925;29;20649;-79
2024/02/21 09:23:16;;;;;;;9.17;8.23;;;10.20;99.90;;;;;;4862696;29;20204;-78
2024/02/21 09:25:43;;;;;;;9.20;8.30;;;10.30;99.90;;;;;;4860536;29;20612;-79
2024/02/21 09:28:10;;;;;;;9.53;8.00;;;10.20;99.90;;;;;;4861748;29;20203;-79
2024/02/21 09:30:38;;;;;;;8.67;7.67;;;10.20;99.90;;;;;;4858773;29;20234;-78
2024/02/21 09:33:06;;;;;;;8.07;7.37;;;10.30;99.90;;;;;;4867561;29;20699;-77
2024/02/21 09:35:34;;;;;;;8.23;7.43;;;10.40;99.90;;;;;;4860597;29;20238;-80
2024/02/21 09:38:01;;;;;;;8.47;7.67;;;10.40;99.90;;;;;;4859463;29;20234;-80
2024/02/21 09:40:27;;;;;;;7.60;6.90;;;10.50;99.90;;;;;;4876902;29;20386;-76
2024/02/21 09:43:04;;;;;;;9.07;7.07;;;10.50;99.90;;;;;;4862727;29;20216;-77
2024/02/21 09:45:31;;;;;;;8.23;7.33;;;10.50;99.90;;;;;;4866768;29;20296;-76
2024/02/21 09:48:17;;;;;;;9.83;7.47;;;10.40;99.90;;;;;;4864825;29;20242;-77
2024/02/21 09:50:44;;;;;;;7.20;6.50;;;10.50;99.90;;;;;;4864157;29;20697;-77
2024/02/21 09:53:13;;;;;;;7.17;6.47;;;10.60;99.90;;;;;;4864568;29;20262;-76
2024/02/21 09:55:41;;;;;;;7.57;6.87;;;10.70;99.90;;;;;;4864579;29;20268;-77
2024/02/21 09:58:09;;;;;;;6.00;5.40;;;10.80;99.90;;;;;;4862332;29;20582;-77
2024/02/21 10:00:36;;;;;;;5.50;5.00;;;11.00;99.90;;;;;;4864490;29;20233;-77
2024/02/21 10:03:07;;;;;;;5.87;4.20;;;11.20;99.90;;;;;;4861639;29;20237;-77
2024/02/21 10:05:36;;;;;;;7.87;4.40;;;11.30;99.90;;;;;;4864830;29;20202;-77
2024/02/21 10:08:03;;;;;;;7.53;5.50;;;11.40;99.90;;;;;;4864631;29;20687;-76
2024/02/21 10:10:31;;;;;;;6.60;5.90;;;11.50;99.90;;;;;;4864409;29;20252;-76
2024/02/21 10:12:58;;;;;;;8.87;6.87;;;11.70;99.90;;;;;;4860189;29;20297;-76
2024/02/21 10:15:25;;;;;;;6.77;5.63;;;11.80;99.90;;;;;;4860883;29;20213;-76
2024/02/21 10:18:00;;;;;;;7.63;6.80;;;11.90;99.90;;;;;;4864188;29;20210;-77
2024/02/21 10:20:27;;;;;;;7.00;5.23;;;12.00;99.90;;;;;;4860035;29;20699;-77
2024/02/21 10:23:07;;;;;;;6.87;5.40;;;12.00;99.90;;;;;;4867941;29;20673;-77
2024/02/21 10:25:35;;;;;;;6.83;6.17;;;12.00;99.90;;;;;;4863975;29;20673;-77
2024/02/21 10:28:03;;;;;;;6.47;5.67;;;12.10;99.90;;;;;;4871698;29;20289;-77
2024/02/21 10:30:30;;;;;;;7.17;5.57;;;12.20;99.90;;;;;;4860318;29;20317;-76
2024/02/21 10:32:57;;;;;;;6.83;6.13;;;12.30;99.90;;;;;;4856659;29;20229;-78
2024/02/21 10:35:28;;;;;;;7.20;6.50;;;12.40;99.90;;;;;;4864548;29;20206;-76
2024/02/21 10:37:56;;;;;;;11.03;10.13;;;12.50;99.90;;;;;;4863327;29;20202;-77
2024/02/21 10:40:25;;;;;;;11.70;10.80;;;12.50;99.90;;;;;;4862858;29;20238;-77
2024/02/21 10:42:57;;;;;;;10.50;9.60;;;12.50;99.90;;;;;;4863658;29;20243;-77
2024/02/21 10:45:31;;;;;;;11.73;10.73;;;12.70;99.90;;;;;;4863696;29;20632;-76
2024/02/21 10:48:07;;;;;;;10.57;9.77;;;12.80;99.90;;;;;;4864177;29;20225;-77
2024/02/21 10:50:41;;;;;;;12.17;11.23;;;12.80;99.90;;;;;;4862249;29;20362;-78
2024/02/21 10:53:16;;;;;;;6.13;5.63;;;12.90;99.90;;;;;;4860789;29;20687;-78
2024/02/21 10:55:52;;;;;;;6.90;5.03;;;12.90;99.90;;;;;;4859223;29;20673;-78
2024/02/21 10:58:20;;;;;;;7.67;6.17;;;13.10;99.90;;;;;;4860551;29;20226;-77
2024/02/21 11:00:47;;;;;;;4.27;3.23;;;13.20;99.90;;;;;;4860154;29;20230;-78
2024/02/21 11:03:14;;;;;;;5.50;5.00;;;13.20;99.90;;;;;;4859625;29;20225;-79
2024/02/21 11:05:42;;;;;;;7.13;3.97;;;13.30;99.90;;;;;;4864191;29;20209;-79
2024/02/21 11:08:09;;;;;;;5.73;3.80;;;13.20;99.90;;;;;;4860416;29;20207;-78
2024/02/21 11:10:40;;;;;;;6.97;6.27;;;13.20;99.90;;;;;;4860162;29;20222;-78
2024/02/21 11:13:10;;;;;;;10.80;9.90;;;13.20;99.90;;;;;;4860079;29;20208;-78
2024/02/21 11:15:37;;;;;;;8.30;7.60;;;13.30;99.90;;;;;;4861444;29;20571;-77
2024/02/21 11:18:04;;;;;;;11.10;10.20;;;13.40;99.90;;;;;;4863325;29;20268;-79
2024/02/21 11:20:34;;;;;;;11.17;10.27;;;13.60;99.90;;;;;;4863072;29;20230;-78
2024/02/21 11:23:02;;;;;;;11.87;11.07;;;13.60;99.90;;;;;;4863543;29;20202;-79
2024/02/21 11:25:30;;;;;;;8.13;7.43;;;13.60;99.90;;;;;;4865307;29;20215;-82
2024/02/21 11:28:01;;;;;;;9.37;8.63;;;13.70;99.90;;;;;;4877897;29;20201;-78
2024/02/21 11:30:31;;;;;;;9.77;7.90;;;13.80;99.90;;;;;;4859160;29;20234;-80
2024/02/21 11:33:04;;;;;;;8.07;7.30;;;13.70;99.90;;;;;;4863223;29;20214;-79
2024/02/21 11:35:35;;;;;;;11.70;10.67;;;13.70;99.90;;;;;;4861549;29;20236;-78
2024/02/21 11:38:14;;;;;;;11.40;10.53;;;13.90;99.90;;;;;;4860593;29;20199;-78
2024/02/21 11:40:46;;;;;;;12.60;11.60;;;14.10;99.90;;;;;;4864673;29;20243;-80
2024/02/21 11:43:13;;;;;;;12.23;11.43;;;14.10;99.90;;;;;;4863513;29;20240;-78
2024/02/21 11:45:41;;;;;;;12.50;11.70;;;14.10;99.90;;;;;;4877988;29;20600;-78
2024/02/21 11:48:08;;;;;;;12.60;11.70;;;14.00;99.90;;;;;;4863420;29;20226;-78
2024/02/21 11:50:36;;;;;;;12.23;11.33;;;14.00;99.90;;;;;;4863621;29;20725;-78
2024/02/21 11:53:03;;;;;;;12.73;11.73;;;14.00;99.90;;;;;;4863477;29;20585;-78
2024/02/21 11:55:30;;;;;;;11.77;10.97;;;14.00;99.90;;;;;;4865692;29;20289;-78
2024/02/21 11:57:59;;;;;;;11.87;11.00;;;14.00;99.90;;;;;;4863268;29;20712;-78
2024/02/21 12:00:27;;;;;;;8.77;7.97;;;14.00;99.90;;;;;;4862300;29;20651;-78
2024/02/21 12:03:01;;;;;;;10.70;9.87;;;14.00;99.90;;;;;;4863598;29;20288;-78
2024/02/21 12:05:29;;;;;;;10.00;9.20;;;14.00;99.90;;;;;;4863554;29;20206;-78
2024/02/21 12:07:58;;;;;;;11.03;10.07;;;13.90;99.90;;;;;;4864167;29;20212;-78
2024/02/21 12:10:27;;;;;;;11.30;10.40;;;13.70;99.90;;;;;;4862551;29;20213;-78
2024/02/21 12:13:03;;;;;;;10.30;9.60;;;13.80;99.90;;;;;;4868158;29;20230;-79
2024/02/21 12:15:29;;;;;;;10.83;9.83;;;13.80;99.90;;;;;;4865652;29;20217;-78
2024/02/21 12:17:59;;;;;;;10.13;9.43;;;13.80;99.90;;;;;;4865031;29;20267;-78
2024/02/21 12:20:26;;;;;;;10.33;9.60;;;13.90;99.90;;;;;;4863394;29;20723;-78
2024/02/21 12:22:53;;;;;;;9.87;9.17;;;13.90;99.90;;;;;;4862975;29;20784;-79
2024/02/21 12:25:23;;;;;;;10.30;9.50;;;13.90;99.90;;;;;;4864894;29;20325;-79
2024/02/21 12:27:50;;;;;;;10.27;9.57;;;13.90;99.90;;;;;;4875337;29;20228;-79
2024/02/21 12:30:17;;;;;;;10.00;9.20;;;13.90;99.90;;;;;;4863423;29;20463;-79
2024/02/21 12:32:44;;;;;;;5.83;2.80;;;13.90;99.90;;;;;;4860557;29;20216;-79
2024/02/21 12:35:12;;;;;;;5.10;2.80;;;13.90;99.90;;;;;;4858186;29;20261;-79
2024/02/21 12:37:39;;;;;;;3.10;2.90;;;13.90;99.90;;;;;;4858799;29;20238;-79
2024/02/21 12:40:06;;;;;;;4.70;2.83;;;14.00;99.90;;;;;;4864071;29;20651;-79